sensor_id;sensor_type;location;lat;lon;timestamp;pressure;altitude;pressure_sealevel;temperature;humidity
68199;BME280;55021;51.554;17.044;2024-01-16T00:03:09;99008.16;;;-0.72;86.30
68199;BME280;55021;51.554;17.044;2024-01-16T00:18:12;99023.28;;;-1.05;84.60
68199;BME280;55021;51.554;17.044;2024-01-16T00:33:14;99055.41;;;-0.96;84.66
68199;BME280;55021;51.554;17.044;2024-01-16T00:48:16;99094.00;;;-1.35;87.00
68199;BME280;55021;51.554;17.044;2024-01-16T01:03:18;99117.81;;;-1.01;84.94
68199;BME280;55021;51.554;17.044;2024-01-16T01:18:21;99121.91;;;-1.30;84.26
68199;BME280;55021;51.554;17.044;2024-01-16T01:33:23;99124.94;;;-0.47;80.15
68199;BME280;55021;51.554;17.044;2024-01-16T01:48:26;99128.25;;;-0.23;78.69
68199;BME280;55021;51.554;17.044;2024-01-16T02:03:28;99163.34;;;0.35;78.49
68199;BME280;55021;51.554;17.044;2024-01-16T02:18:31;99184.66;;;0.35;77.80
68199;BME280;55021;51.554;17.044;2024-01-16T02:33:33;99193.78;;;1.04;75.72
68199;BME280;55021;51.554;17.044;2024-01-16T02:48:36;99188.44;;;0.53;76.26
68199;BME280;55021;51.554;17.044;2024-01-16T03:03:38;99211.00;;;-0.15;79.32
68199;BME280;55021;51.554;17.044;2024-01-16T03:18:41;99229.59;;;-0.35;80.50
68199;BME280;55021;51.554;17.044;2024-01-16T03:33:43;99241.00;;;-0.78;84.61
68199;BME280;55021;51.554;17.044;2024-01-16T03:48:45;99257.53;;;0.24;79.36
68199;BME280;55021;51.554;17.044;2024-01-16T04:03:48;99209.19;;;-0.90;86.22
68199;BME280;55021;51.554;17.044;2024-01-16T04:18:50;99290.28;;;-1.18;98.14
68199;BME280;55021;51.554;17.044;2024-01-16T04:33:52;99328.59;;;-2.28;100.00
68199;BME280;55021;51.554;17.044;2024-01-16T04:48:54;99350.72;;;-2.53;100.00
68199;BME280;55021;51.554;17.044;2024-01-16T05:03:57;99356.66;;;-3.12;100.00
68199;BME280;55021;51.554;17.044;2024-01-16T05:18:59;99334.59;;;-2.01;100.00
68199;BME280;55021;51.554;17.044;2024-01-16T05:34:01;99358.66;;;-1.55;100.00
68199;BME280;55021;51.554;17.044;2024-01-16T05:49:04;99390.31;;;-1.28;100.00
68199;BME280;55021;51.554;17.044;2024-01-16T06:04:06;99398.81;;;-1.83;98.57
68199;BME280;55021;51.554;17.044;2024-01-16T06:19:08;99424.25;;;-1.55;96.89
68199;BME280;55021;51.554;17.044;2024-01-16T06:34:10;99438.19;;;-2.39;99.63
68199;BME280;55021;51.554;17.044;2024-01-16T06:49:13;99473.69;;;-3.59;98.38
68199;BME280;55021;51.554;17.044;2024-01-16T07:04:15;99519.53;;;-4.57;99.81
68199;BME280;55021;51.554;17.044;2024-01-16T07:19:17;99549.25;;;-3.40;97.26
68199;BME280;55021;51.554;17.044;2024-01-16T07:34:19;99574.50;;;-2.66;95.31
68199;BME280;55021;51.554;17.044;2024-01-16T07:49:21;99609.81;;;-1.87;95.99
68199;BME280;55021;51.554;17.044;2024-01-16T08:04:24;99549.94;;;-2.56;100.00
68199;BME280;55021;51.554;17.044;2024-01-16T08:19:26;99652.09;;;-2.09;100.00
68199;BME280;55021;51.554;17.044;2024-01-16T08:34:28;99614.22;;;-2.26;100.00
68199;BME280;55021;51.554;17.044;2024-01-16T08:49:30;99678.50;;;-1.43;100.00
68199;BME280;55021;51.554;17.044;2024-01-16T09:04:33;99667.84;;;-1.94;100.00
68199;BME280;55021;51.554;17.044;2024-01-16T09:19:36;99695.06;;;-1.65;100.00
68199;BME280;55021;51.554;17.044;2024-01-16T09:34:38;99717.19;;;-2.31;100.00
68199;BME280;55021;51.554;17.044;2024-01-16T09:49:41;99726.09;;;-1.78;100.00
68199;BME280;55021;51.554;17.044;2024-01-16T10:04:44;99736.19;;;-1.71;100.00
68199;BME280;55021;51.554;17.044;2024-01-16T10:19:51;99735.81;;;-1.02;97.53
68199;BME280;55021;51.554;17.044;2024-01-16T10:34:58;99759.53;;;-1.88;100.00
68199;BME280;55021;51.554;17.044;2024-01-16T10:50:02;99764.13;;;0.45;88.33
68199;BME280;55021;51.554;17.044;2024-01-16T11:05:06;99762.31;;;-0.87;97.53
68199;BME280;55021;51.554;17.044;2024-01-16T11:20:09;99781.69;;;-0.24;92.36
68199;BME280;55021;51.554;17.044;2024-01-16T11:35:31;99757.31;;;0.41;87.50
68199;BME280;55021;51.554;17.044;2024-01-16T11:50:33;99779.34;;;-0.28;89.73
68199;BME280;55021;51.554;17.044;2024-01-16T12:05:36;99778.78;;;-0.70;94.18
68199;BME280;55021;51.554;17.044;2024-01-16T12:20:39;99788.28;;;0.07;87.40
68199;BME280;55021;51.554;17.044;2024-01-16T12:35:42;99790.66;;;-0.01;88.80
68199;BME280;55021;51.554;17.044;2024-01-16T12:50:45;99816.00;;;1.44;82.68
68199;BME280;55021;51.554;17.044;2024-01-16T13:05:54;99819.47;;;1.11;82.37
68199;BME280;55021;51.554;17.044;2024-01-16T13:20:58;99784.06;;;1.20;81.76
68199;BME280;55021;51.554;17.044;2024-01-16T13:36:00;99820.50;;;1.65;79.72
68199;BME280;55021;51.554;17.044;2024-01-16T13:51:03;99823.72;;;1.13;82.07
68199;BME280;55021;51.554;17.044;2024-01-16T14:06:06;99829.09;;;-0.16;87.83
68199;BME280;55021;51.554;17.044;2024-01-16T14:21:08;99833.38;;;-0.39;88.94
68199;BME280;55021;51.554;17.044;2024-01-16T14:36:11;99843.47;;;-0.19;85.90
68199;BME280;55021;51.554;17.044;2024-01-16T14:51:13;99854.91;;;-0.55;87.62
68199;BME280;55021;51.554;17.044;2024-01-16T15:06:16;99856.94;;;-0.46;92.19
68199;BME280;55021;51.554;17.044;2024-01-16T15:21:18;99874.72;;;-0.46;90.88
68199;BME280;55021;51.554;17.044;2024-01-16T15:36:21;99872.59;;;-0.41;91.08
68199;BME280;55021;51.554;17.044;2024-01-16T15:51:23;99868.22;;;-0.29;91.13
68199;BME280;55021;51.554;17.044;2024-01-16T16:06:26;99857.03;;;-0.34;89.76
68199;BME280;55021;51.554;17.044;2024-01-16T16:21:29;99868.09;;;-0.53;89.50
68199;BME280;55021;51.554;17.044;2024-01-16T16:36:32;99854.75;;;-1.16;89.08
68199;BME280;55021;51.554;17.044;2024-01-16T16:51:34;99869.81;;;-0.77;88.67
68199;BME280;55021;51.554;17.044;2024-01-16T17:06:37;99845.00;;;-0.90;90.72
68199;BME280;55021;51.554;17.044;2024-01-16T17:21:40;99860.78;;;-0.62;90.46
68199;BME280;55021;51.554;17.044;2024-01-16T17:36:42;99885.91;;;-0.79;90.80
68199;BME280;55021;51.554;17.044;2024-01-16T17:51:46;99901.94;;;-0.80;90.83
68199;BME280;55021;51.554;17.044;2024-01-16T18:06:48;99929.56;;;-1.08;93.16
68199;BME280;55021;51.554;17.044;2024-01-16T18:21:51;99905.72;;;-0.58;90.28
68199;BME280;55021;51.554;17.044;2024-01-16T18:36:53;99908.59;;;-0.35;90.01
68199;BME280;55021;51.554;17.044;2024-01-16T18:51:56;99879.88;;;-1.08;92.38
68199;BME280;55021;51.554;17.044;2024-01-16T19:06:58;99920.84;;;-1.10;95.71
68199;BME280;55021;51.554;17.044;2024-01-16T19:22:00;99916.22;;;-0.81;92.43
68199;BME280;55021;51.554;17.044;2024-01-16T19:37:03;99926.06;;;-1.09;92.79
68199;BME280;55021;51.554;17.044;2024-01-16T19:52:05;99926.31;;;-1.26;91.70
68199;BME280;55021;51.554;17.044;2024-01-16T20:07:08;99874.50;;;-1.60;90.32
68199;BME280;55021;51.554;17.044;2024-01-16T20:22:10;99930.59;;;-0.71;87.94
68199;BME280;55021;51.554;17.044;2024-01-16T20:37:12;99937.53;;;-0.81;87.75
68199;BME280;55021;51.554;17.044;2024-01-16T20:52:14;99937.53;;;-0.56;86.19
68199;BME280;55021;51.554;17.044;2024-01-16T21:07:18;99899.75;;;-1.13;87.30
68199;BME280;55021;51.554;17.044;2024-01-16T21:22:20;99922.81;;;-0.87;84.70
68199;BME280;55021;51.554;17.044;2024-01-16T21:37:22;99938.25;;;-1.19;85.03
68199;BME280;55021;51.554;17.044;2024-01-16T21:52:25;99934.03;;;-1.76;88.30
68199;BME280;55021;51.554;17.044;2024-01-16T22:07:27;99926.66;;;-1.18;85.56
68199;BME280;55021;51.554;17.044;2024-01-16T22:22:30;99916.22;;;-1.21;89.36
68199;BME280;55021;51.554;17.044;2024-01-16T22:37:33;99914.53;;;-0.57;83.96
68199;BME280;55021;51.554;17.044;2024-01-16T22:52:36;99903.09;;;-1.36;86.58
68199;BME280;55021;51.554;17.044;2024-01-16T23:07:38;99912.91;;;-1.51;87.35
68199;BME280;55021;51.554;17.044;2024-01-16T23:22:41;99898.91;;;-1.14;86.75
68199;BME280;55021;51.554;17.044;2024-01-16T23:37:44;99883.41;;;-1.87;87.47
68199;BME280;55021;51.554;17.044;2024-01-16T23:52:47;99887.88;;;-1.88;86.63
